createdAt,value
2019-03-12T00:00:05.922Z,99.9
2019-03-12T00:05:05.838Z,99.9
2019-03-12T00:10:08.379Z,99.9
2019-03-12T00:15:08.379Z,99.9
2019-03-12T00:20:08.537Z,99.9
2019-03-12T00:25:03.373Z,99.9
2019-03-12T00:30:10.935Z,99.9
2019-03-12T00:35:08.393Z,99.9
2019-03-12T00:40:02.870Z,99.9
2019-03-12T00:45:07.936Z,99.9
2019-03-12T00:50:15.574Z,99.9
2019-03-12T00:55:08.001Z,99.9
2019-03-12T01:00:02.969Z,99.9
2019-03-12T01:05:02.907Z,99.9
2019-03-12T01:10:03.382Z,99.9
2019-03-12T01:15:03.387Z,99.9
2019-03-12T01:20:18.592Z,99.9
2019-03-12T01:25:03.485Z,99.9
2019-03-12T01:30:06.010Z,99.9
2019-03-12T01:35:05.055Z,99.9
2019-03-12T01:45:07.789Z,99.9
2019-03-12T01:50:02.737Z,99.9
2019-03-12T01:55:30.620Z,99.9
2019-03-12T02:00:15.272Z,99.9
2019-03-12T02:05:07.631Z,99.9
2019-03-12T02:10:10.811Z,99.9
2019-03-12T02:15:08.165Z,99.9
2019-03-12T02:20:05.733Z,99.9
2019-03-12T02:25:23.339Z,99.9
2019-03-12T02:30:03.380Z,99.9
2019-03-12T02:35:05.040Z,99.9
2019-03-12T02:40:02.599Z,99.9
2019-03-12T02:45:02.650Z,99.9
2019-03-12T02:50:02.644Z,99.9
2019-03-12T02:55:05.210Z,99.9
2019-03-12T03:00:05.728Z,99.9
2019-03-12T03:05:15.846Z,99.9
2019-03-12T03:10:10.898Z,99.9
2019-03-12T03:15:08.350Z,99.9
2019-03-12T03:20:23.641Z,99.9
2019-03-12T03:25:32.843Z,99.9
2019-03-12T03:30:08.065Z,99.9
2019-03-12T03:35:07.567Z,99.9
2019-03-12T03:40:13.225Z,99.9
2019-03-12T03:45:03.102Z,99.9
2019-03-12T03:50:18.549Z,99.9
2019-03-12T03:55:15.745Z,99.9
2019-03-12T04:00:02.665Z,99.9
2019-03-12T04:05:20.466Z,99.9
2019-03-12T04:10:02.963Z,99.9
2019-03-12T04:15:05.430Z,99.9
2019-03-12T04:20:07.602Z,99.9
2019-03-12T04:25:07.573Z,99.9
2019-03-12T04:30:15.276Z,99.9
2019-03-12T04:35:02.487Z,99.9
2019-03-12T04:40:08.062Z,99.9
2019-03-12T04:45:03.023Z,99.9
2019-03-12T04:50:08.090Z,99.9
2019-03-12T04:55:03.165Z,99.9
2019-03-12T05:00:05.738Z,99.9
2019-03-12T05:05:03.161Z,99.9
2019-03-12T05:10:15.607Z,99.9
2019-03-12T05:15:05.452Z,99.9
2019-03-12T05:20:25.245Z,99.9
2019-03-12T05:25:05.732Z,99.9
2019-03-12T05:30:02.682Z,99.9
2019-03-12T05:35:05.143Z,99.9
2019-03-12T05:40:05.189Z,99.9
2019-03-12T05:45:05.140Z,99.9
2019-03-12T05:50:03.094Z,99.9
2019-03-12T05:55:08.172Z,99.9
2019-03-12T06:00:08.235Z,99.9
2019-03-12T06:05:15.697Z,99.9
2019-03-12T06:10:08.247Z,99.9
2019-03-12T06:15:20.852Z,99.9
2019-03-12T06:20:02.866Z,99.9
2019-03-12T06:25:05.447Z,99.9
2019-03-12T06:30:02.721Z,99.9
2019-03-12T06:35:02.689Z,99.9
2019-03-12T06:40:28.388Z,99.9
2019-03-12T06:45:18.525Z,99.9
2019-03-12T06:50:02.467Z,99.9
2019-03-12T06:55:20.196Z,99.9
2019-03-12T07:00:03.287Z,99.9
2019-03-12T07:05:02.498Z,99.9
2019-03-12T07:10:03.113Z,99.9
2019-03-12T07:15:10.091Z,99.9
2019-03-12T07:20:07.789Z,99.9
2019-03-12T07:25:17.977Z,99.9
2019-03-12T07:30:02.986Z,99.9
2019-03-12T07:35:10.571Z,99.9
2019-03-12T07:40:08.114Z,99.9
2019-03-12T07:45:11.044Z,99.9
2019-03-12T07:50:02.983Z,99.9
2019-03-12T07:55:05.545Z,99.5
2019-03-12T08:00:02.507Z,99.9
2019-03-12T08:05:02.691Z,99.9
2019-03-12T08:10:03.152Z,99.9
2019-03-12T08:15:03.110Z,99.9
2019-03-12T08:20:05.747Z,99.9
2019-03-12T08:25:05.708Z,99.9
2019-03-12T08:30:10.237Z,99.9
2019-03-12T08:35:02.670Z,99.9
2019-03-12T08:40:03.110Z,99.9
2019-03-12T08:45:05.619Z,99.9
2019-03-12T08:50:05.922Z,99.9
2019-03-12T08:55:18.461Z,99.9
2019-03-12T09:00:05.188Z,99.9
2019-03-12T09:05:17.792Z,99.9
2019-03-12T09:10:03.312Z,99.9
2019-03-12T09:15:10.887Z,99.9
2019-03-12T09:20:20.625Z,99.9
2019-03-12T09:25:08.040Z,99.9
2019-03-12T09:30:05.572Z,99.9
2019-03-12T09:35:08.036Z,99.9
2019-03-12T09:40:07.575Z,99.9
2019-03-12T09:45:05.043Z,99.9
2019-03-12T09:50:05.822Z,99.9
2019-03-12T09:55:18.343Z,99.9
2019-03-12T10:00:17.112Z,80.7
2019-03-12T10:05:02.649Z,99.9
2019-03-12T10:10:35.992Z,99.9
2019-03-12T10:15:08.062Z,99.9
2019-03-12T10:20:23.353Z,99.9
2019-03-12T10:25:20.810Z,99.9
2019-03-12T10:30:05.336Z,99.9
2019-03-12T10:35:05.252Z,99.9
2019-03-12T10:40:05.766Z,99.9
2019-03-12T10:45:10.722Z,99.9
2019-03-12T10:50:05.233Z,99.9
2019-03-12T10:55:13.866Z,99.9
2019-03-12T11:05:15.624Z,99.9
2019-03-12T11:10:03.081Z,99.9
2019-03-12T11:15:15.882Z,99.9
2019-03-12T11:20:10.555Z,74.3
2019-03-12T11:25:07.968Z,99.9
2019-03-12T11:30:02.957Z,99.9
2019-03-12T11:35:03.032Z,99.9
2019-03-12T11:40:03.113Z,99.9
2019-03-12T11:45:12.704Z,99.9
2019-03-12T11:50:28.625Z,99.9
2019-03-12T11:55:07.811Z,99.9
2019-03-12T12:00:19.854Z,99.9
2019-03-12T12:05:07.789Z,99.9
2019-03-12T12:10:05.936Z,99.9
2019-03-12T12:15:03.406Z,99.9
2019-03-12T12:20:06.039Z,99.1
2019-03-12T12:25:03.435Z,99.3
2019-03-12T12:30:10.080Z,99.9
2019-03-12T12:35:11.071Z,99
2019-03-12T12:40:17.756Z,96.5
2019-03-12T12:45:05.139Z,94.4
2019-03-12T12:50:05.723Z,91.9
2019-03-12T12:55:03.178Z,91.6
2019-03-12T13:00:05.769Z,73.5
2019-03-12T13:05:05.805Z,59.5
2019-03-12T13:10:10.922Z,58.4
2019-03-12T13:15:05.943Z,59.6
2019-03-12T13:20:05.765Z,62.1
2019-03-12T13:25:03.283Z,62.1
2019-03-12T13:30:03.383Z,65.4
2019-03-12T13:35:17.785Z,82
2019-03-12T13:40:02.525Z,82.1
2019-03-12T13:45:05.190Z,81.6
2019-03-12T13:50:03.401Z,81.5
2019-03-12T13:55:05.138Z,83.8
2019-03-12T14:00:15.800Z,90.3
2019-03-12T14:05:23.375Z,91.8
2019-03-12T14:10:02.809Z,91.5
2019-03-12T14:15:20.607Z,86.1
2019-03-12T14:20:22.893Z,91.3
2019-03-12T14:25:02.718Z,91.3
2019-03-12T14:30:05.282Z,95.3
2019-03-12T14:35:07.805Z,96.8
2019-03-12T14:40:03.400Z,96.9
2019-03-12T14:45:15.266Z,96.4
2019-03-12T14:50:05.809Z,96.4
2019-03-12T14:55:36.242Z,94
2019-03-12T15:00:15.979Z,92.8
2019-03-12T15:05:06.060Z,95
2019-03-12T15:10:02.596Z,95.1
2019-03-12T15:15:02.575Z,93.7
2019-03-12T15:20:02.619Z,85.7
2019-03-12T15:30:28.112Z,90.7
2019-03-12T15:35:05.589Z,92.6
2019-03-12T15:40:18.296Z,95.5
2019-03-12T15:45:03.208Z,95.6
2019-03-12T15:50:09.969Z,96.8
2019-03-12T15:55:05.795Z,96.3
2019-03-12T16:00:05.375Z,96.6
2019-03-12T16:05:02.859Z,96.6
2019-03-12T16:10:08.464Z,98.2
2019-03-12T16:15:20.523Z,99.9
2019-03-12T16:20:05.144Z,99.9
2019-03-12T16:25:07.756Z,99.9
2019-03-12T16:30:02.753Z,99.9
2019-03-12T16:35:25.653Z,99.9
2019-03-12T16:40:23.460Z,99.9
2019-03-12T16:45:03.287Z,99.9
2019-03-12T16:50:13.403Z,99.9
2019-03-12T16:55:15.935Z,99.9
2019-03-12T17:00:08.847Z,99.9
2019-03-12T17:05:10.605Z,48.7
2019-03-12T17:10:08.154Z,99.9
2019-03-12T17:15:03.121Z,99.9
2019-03-12T17:20:03.210Z,99.9
2019-03-12T17:25:23.471Z,99.9
2019-03-12T17:30:02.494Z,99.9
2019-03-12T17:35:07.604Z,99.9
2019-03-12T17:40:05.589Z,99.9
2019-03-12T17:45:05.658Z,99.9
2019-03-12T17:50:20.444Z,99.9
2019-03-12T17:55:05.274Z,99.9
2019-03-12T18:00:13.482Z,99.9
2019-03-12T18:05:08.354Z,99.9
2019-03-12T18:10:07.882Z,99.9
2019-03-12T18:15:20.176Z,99.9
2019-03-12T18:20:31.106Z,99.9
2019-03-12T18:25:08.221Z,99.9
2019-03-12T18:30:20.885Z,99.9
2019-03-12T18:35:10.807Z,99.9
2019-03-12T18:40:03.346Z,99.9
2019-03-12T18:45:03.359Z,99.9
2019-03-12T18:50:05.058Z,99.9
2019-03-12T18:55:02.504Z,99.9
2019-03-12T19:00:05.062Z,99.9
2019-03-12T19:05:02.547Z,99.9
2019-03-12T19:10:12.972Z,99.9
2019-03-12T19:15:28.301Z,99.9
2019-03-12T19:20:13.577Z,99.9
2019-03-12T19:25:22.727Z,99.9
2019-03-12T19:30:07.915Z,99.9
2019-03-12T19:35:15.486Z,99.9
2019-03-12T19:40:08.127Z,99.9
2019-03-12T19:45:15.802Z,99.9
2019-03-12T19:50:12.911Z,99.9
2019-03-12T19:55:17.950Z,99.9
2019-03-12T20:00:05.481Z,99.9
2019-03-12T20:05:02.960Z,99.9
2019-03-12T20:10:06.062Z,99.9
2019-03-12T20:15:05.076Z,99.9
2019-03-12T20:20:13.280Z,96.7
2019-03-12T20:25:03.105Z,99.9
2019-03-12T20:30:08.134Z,99.9
2019-03-12T20:35:05.629Z,99.9
2019-03-12T20:40:05.720Z,99.9
2019-03-12T20:45:08.166Z,99.9
2019-03-12T20:50:03.445Z,99.9
2019-03-12T20:55:07.448Z,99.9
2019-03-12T21:00:05.020Z,99.9
2019-03-12T21:05:02.465Z,99.9
2019-03-12T21:10:05.448Z,99.9
2019-03-12T21:15:02.979Z,99.9
2019-03-12T21:20:28.339Z,99.9
2019-03-12T21:25:05.870Z,99.9
2019-03-12T21:30:11.731Z,99.9
2019-03-12T21:35:03.070Z,99.9
2019-03-12T21:40:25.372Z,99.9
2019-03-12T21:45:07.713Z,99.9
2019-03-12T21:50:02.689Z,99.9
2019-03-12T21:55:05.248Z,99.9
2019-03-12T22:00:10.932Z,99.9
2019-03-12T22:05:03.205Z,99.9
2019-03-12T22:10:02.671Z,99.9
2019-03-12T22:15:07.721Z,99.9
2019-03-12T22:20:02.798Z,99.9
2019-03-12T22:25:10.344Z,99.9
2019-03-12T22:30:03.381Z,99.9
2019-03-12T22:35:04.992Z,99.9
2019-03-12T22:40:23.646Z,99.9
2019-03-12T22:45:03.430Z,99.9
2019-03-12T22:50:16.072Z,99.9
2019-03-12T22:55:05.007Z,99.9
2019-03-12T23:00:05.542Z,99.9
2019-03-12T23:05:25.814Z,99.9
2019-03-12T23:10:13.426Z,99.9
2019-03-12T23:15:21.071Z,99.9
2019-03-12T23:20:08.226Z,99.9
2019-03-12T23:25:05.745Z,99.9
2019-03-12T23:30:23.026Z,99.9
2019-03-12T23:40:10.905Z,99.9
2019-03-12T23:45:02.574Z,99.9
2019-03-12T23:50:15.219Z,93.6
2019-03-12T23:55:05.123Z,91.7
